»·PEaware :: N73YZ KSNA-L71

N73YZ :: KSNA-L71

FLIGHT INFORMATION

Flight Status: Arrived
Operator: Privately registered:
United States
More flights under this callsign
Pilot: William K. (10629)
Aircraft: CESSNA 210 CENTURION
(C210)
More flights by this aircraft type
Origin: KSNA John Wayne-Orange Co
United States
Destination: L71 California City Mun
United States
More flights between these airports :: More routes between these airports
Route: +ANAHM7 SLI V459 BERRI V201 PMD
File this flight plan on PilotEdge
Remarks:
Altitude:
(Current/Filed)
9,000ft
Speed:
(Current/Filed)
170kts
Departed: 11-Oct-16 01:35 PM
Arrived: 11-Oct-16 02:19 PM
Distance/Time
Traveled:
89nm/0:43
Distance/Time
To Go:
Arrived

Flight Plot

Page will automatically refresh every two minutes.

Flight plan parsing failed; only flown route is shown


Map Options




Map Legend


Flown Route
Filed Route
Departure Airport
Arrival Airport
Navaid (VOR, NDB)
Fix

Horizontal Profiles

Position Reports

Time Latitude Longitude Heading Altitude Ground
Speed
11-Oct-16 13:20 33.672485 -117.866876 210 60ft 0kts
11-Oct-16 13:21 33.672485 -117.866876 210 60ft 0kts
11-Oct-16 13:22 33.672485 -117.866876 210 60ft 0kts
11-Oct-16 13:23 33.672485 -117.866876 210 60ft 0kts
11-Oct-16 13:24 33.672485 -117.866876 210 60ft 0kts
11-Oct-16 13:25 33.672485 -117.866876 210 60ft 0kts
11-Oct-16 13:26 33.672485 -117.866876 210 60ft 0kts
11-Oct-16 13:27 33.672485 -117.866876 210 60ft 0kts
11-Oct-16 13:28 33.675439 -117.866270 30 60ft 26kts
11-Oct-16 13:29 33.680079 -117.863781 298 60ft 0kts
11-Oct-16 13:30 33.679655 -117.864458 206 60ft 26kts
11-Oct-16 13:31 33.662904 -117.879521 232 726ft 100kts
11-Oct-16 13:32 33.643775 -117.909549 233 1550ft 118kts
11-Oct-16 13:33 33.622473 -117.943246 233 2106ft 139kts
11-Oct-16 13:34 33.600304 -117.978431 233 2885ft 132kts
11-Oct-16 13:35 33.579574 -118.011460 233 3646ft 127kts
11-Oct-16 13:36 33.566044 -118.045786 261 4385ft 124kts
11-Oct-16 13:37 33.577686 -118.075593 347 5101ft 136kts
11-Oct-16 13:38 33.615051 -118.071644 0 5883ft 137kts
11-Oct-16 13:39 33.650784 -118.067699 359 6641ft 135kts
11-Oct-16 13:40 33.683954 -118.064336 358 7353ft 132kts
11-Oct-16 13:41 33.715920 -118.061224 357 8055ft 129kts
11-Oct-16 13:42 33.747219 -118.058237 356 8761ft 126kts
11-Oct-16 13:43 33.780006 -118.060007 331 9003ft 150kts
11-Oct-16 13:44 33.818040 -118.075491 337 8996ft 168kts
11-Oct-16 13:45 33.855613 -118.096240 328 8998ft 166kts
11-Oct-16 13:46 33.896848 -118.120126 328 9001ft 166kts
11-Oct-16 13:47 33.930779 -118.139736 328 9002ft 166kts
11-Oct-16 13:48 33.966582 -118.160418 328 9003ft 166kts
11-Oct-16 13:49 34.007911 -118.184309 328 9003ft 167kts
11-Oct-16 13:50 34.049790 -118.208543 328 9002ft 168kts
11-Oct-16 13:51 34.092132 -118.233073 328 9001ft 170kts
11-Oct-16 13:52 34.134557 -118.257540 328 8998ft 171kts
11-Oct-16 13:53 34.177484 -118.282388 328 8998ft 172kts
11-Oct-16 13:54 34.220794 -118.307534 328 8999ft 173kts
11-Oct-16 13:55 34.267667 -118.295857 26 9004ft 185kts
11-Oct-16 13:56 34.312545 -118.265252 26 9009ft 184kts
11-Oct-16 13:57 34.356348 -118.234237 26 9009ft 182kts
11-Oct-16 13:58 34.399731 -118.202817 26 9006ft 181kts
11-Oct-16 13:59 34.443076 -118.171278 26 8983ft 182kts
11-Oct-16 14:00 34.487138 -118.139814 23 8971ft 184kts
11-Oct-16 14:01 34.534042 -118.115025 19 8966ft 184kts
11-Oct-16 14:02 34.581280 -118.090260 19 8964ft 185kts
11-Oct-16 14:03 34.628226 -118.065464 19 9018ft 184kts
11-Oct-16 14:04 34.676808 -118.049493 4 9017ft 181kts
11-Oct-16 14:05 34.727857 -118.039014 4 8552ft 190kts
11-Oct-16 14:06 34.780522 -118.028691 4 7958ft 193kts
11-Oct-16 14:07 34.833450 -118.018716 4 7360ft 191kts
11-Oct-16 14:08 34.885736 -118.009091 4 6765ft 189kts
11-Oct-16 14:09 34.937591 -118.005026 353 6170ft 185kts
11-Oct-16 14:10 34.988948 -118.007489 353 5575ft 183kts
11-Oct-16 14:11 35.039563 -118.010180 353 5025ft 179kts
11-Oct-16 14:12 35.086413 -118.007081 20 4848ft 165kts
11-Oct-16 14:13 35.123392 -117.990561 333 3351ft 134kts
11-Oct-16 14:14 35.152937 -118.002938 296 2729ft 95kts
11-Oct-16 14:15 35.150707 -118.019138 262 2439ft 0kts
11-Oct-16 14:16 35.150707 -118.019138 262 2439ft 0kts
11-Oct-16 14:17 35.150707 -118.019138 262 2439ft 0kts

Navigation Log

Ident Type
Flight plan parsing failed, navigation log unavailable